Christine, Texas
Current Conditions -  °F | °C
As of 3:15 AM on Monday 20 Oct 2014 (Local Time) from KPEZ Reporting Station
Scattered Clouds Scattered Clouds  
Wind Chill: 66°   Ceiling: Unl
Heat Index: 66°   Visibility: 7mi
Dew Point: 64°   Wind: 0mph
Humidity: 92%   Direction: NA
Pressure: 30"   Gusts: NA
Location:  28.79°N, 98.5°W
Report Text: KPEZ 200815Z AUTO 00000KT 7SM SCT065 19/18 A3000 RMK AO2 T01900177
Loading
Personal Weather Stations






























Interactive Weather Map
Tropical Storm Tracking
New forecast layout! Learn more

10-Day Weather Forecast

Advertisements
Track Severe Weather on mobile